BAW33C EGBB-LFKJ
Flight info
| Callsign | BAW33C |
|---|---|
| Flight time | 2h 0m |
| Altitude | 35000 |
| Route | COWLY DCT WOD DCT MID DCT BOGNA DCT BENBO DCT HAWKE DCT XAMAB DCT VEULE DCT INPAX DCT RESMI DCT ODEBU DCT OGULO DCT CACHI DCT LOGNI DCT GIPNO DCT NEDRU DCT OKTET DCT BARSO DCT PIGOS DCT DIVUL DCT MERLU DCT LONSU DCT ABRON DCT OMEDA DCT BEBEV DCT KJ601 |
| Aircraft | A320/M-SDE3FGHIRWY/LB1 |
Departure
| Time | 2026-05-07 20:49 |
|---|---|
| Airport | Birmingham Airport (EGBB) |
Arrival
| Time | 2026-05-07 22:49 |
|---|---|
| Airport | Ajaccio Napoléon Bonaparte airport (LFKJ) |
| Time | Latitude | Longitude | Altitude | Speed | Heading |
|---|---|---|---|---|---|
| 2026-05-07 20:26 | 52.45249 | -1.73592 | 322 ft | 0 kts | 326° |
| 2026-05-07 20:37 | 52.45247 | -1.73591 | 323 ft | 2 kts | 326° |
| 2026-05-07 20:37 | 52.45226 | -1.73566 | 320 ft | 4 kts | 319° |
| 2026-05-07 20:38 | 52.45207 | -1.73535 | 322 ft | 4 kts | 305° |
| 2026-05-07 20:38 | 52.45197 | -1.73498 | 322 ft | 4 kts | 263° |
| 2026-05-07 20:38 | 52.45201 | -1.73478 | 322 ft | 1 kts | 236° |
| 2026-05-07 20:38 | 52.45202 | -1.73476 | 322 ft | 0 kts | 236° |
| 2026-05-07 20:41 | 52.45198 | -1.73485 | 322 ft | 4 kts | 236° |
| 2026-05-07 20:41 | 52.45166 | -1.73561 | 323 ft | 11 kts | 236° |
| 2026-05-07 20:41 | 52.45120 | -1.73672 | 323 ft | 12 kts | 235° |
| 2026-05-07 20:42 | 52.45114 | -1.73789 | 322 ft | 12 kts | 311° |
| 2026-05-07 20:42 | 52.45186 | -1.73869 | 322 ft | 13 kts | 326° |
| 2026-05-07 20:42 | 52.45271 | -1.73965 | 322 ft | 16 kts | 324° |
| 2026-05-07 20:42 | 52.45336 | -1.74119 | 323 ft | 17 kts | 296° |
| 2026-05-07 20:43 | 52.45392 | -1.74303 | 323 ft | 19 kts | 296° |
| 2026-05-07 20:43 | 52.45451 | -1.74496 | 323 ft | 17 kts | 297° |
| 2026-05-07 20:43 | 52.45536 | -1.74642 | 323 ft | 19 kts | 326° |
| 2026-05-07 20:43 | 52.45654 | -1.74773 | 316 ft | 19 kts | 326° |
| 2026-05-07 20:44 | 52.45779 | -1.74911 | 309 ft | 23 kts | 326° |
| 2026-05-07 20:44 | 52.45889 | -1.75033 | 306 ft | 19 kts | 326° |
| 2026-05-07 20:44 | 52.46006 | -1.75163 | 305 ft | 21 kts | 326° |
| 2026-05-07 20:44 | 52.46136 | -1.75308 | 305 ft | 24 kts | 326° |
| 2026-05-07 20:45 | 52.46279 | -1.75467 | 305 ft | 24 kts | 325° |
| 2026-05-07 20:45 | 52.46411 | -1.75614 | 302 ft | 21 kts | 326° |
| 2026-05-07 20:45 | 52.46534 | -1.75749 | 306 ft | 20 kts | 325° |
| 2026-05-07 20:45 | 52.46615 | -1.75840 | 308 ft | 9 kts | 325° |
| 2026-05-07 20:46 | 52.46633 | -1.75918 | 306 ft | 9 kts | 251° |
| 2026-05-07 20:46 | 52.46592 | -1.76018 | 305 ft | 10 kts | 235° |
| 2026-05-07 20:46 | 52.46553 | -1.76091 | 305 ft | 7 kts | 201° |
| 2026-05-07 20:46 | 52.46524 | -1.76068 | 307 ft | 0 kts | 145° |
| 2026-05-07 20:47 | 52.46523 | -1.76068 | 307 ft | 0 kts | 145° |
| 2026-05-07 20:48 | 52.46407 | -1.75936 | 308 ft | 54 kts | 146° |
| 2026-05-07 20:48 | 52.45920 | -1.75394 | 317 ft | 112 kts | 146° |
| 2026-05-07 20:48 | 52.45141 | -1.74529 | 335 ft | 156 kts | 145° |
| 2026-05-07 20:48 | 52.44206 | -1.73514 | 783 ft | 164 kts | 146° |
| 2026-05-07 20:49 | 52.43238 | -1.72488 | 1395 ft | 167 kts | 147° |
| 2026-05-07 20:49 | 52.42291 | -1.71436 | 2080 ft | 167 kts | 146° |
| 2026-05-07 20:49 | 52.41278 | -1.70333 | 2459 ft | 185 kts | 153° |
| 2026-05-07 20:49 | 52.39981 | -1.69660 | 2750 ft | 205 kts | 165° |
| 2026-05-07 20:50 | 52.38575 | -1.69077 | 3292 ft | 211 kts | 165° |
| 2026-05-07 20:50 | 52.37211 | -1.68141 | 3980 ft | 215 kts | 154° |
| 2026-05-07 20:50 | 52.35861 | -1.67046 | 4714 ft | 218 kts | 154° |
| 2026-05-07 20:50 | 52.34512 | -1.65820 | 5262 ft | 231 kts | 150° |
| 2026-05-07 20:51 | 52.33074 | -1.64359 | 5593 ft | 255 kts | 149° |
| 2026-05-07 20:51 | 52.31542 | -1.62769 | 6210 ft | 266 kts | 149° |
| 2026-05-07 20:51 | 52.29970 | -1.61130 | 6985 ft | 269 kts | 149° |
| 2026-05-07 20:51 | 52.28385 | -1.59478 | 7817 ft | 271 kts | 149° |
| 2026-05-07 20:52 | 52.26785 | -1.57818 | 8604 ft | 274 kts | 148° |
| 2026-05-07 20:52 | 52.25135 | -1.56215 | 9356 ft | 278 kts | 154° |
| 2026-05-07 20:52 | 52.23400 | -1.54797 | 10135 ft | 280 kts | 155° |
| 2026-05-07 20:52 | 52.21642 | -1.53405 | 10820 ft | 282 kts | 155° |
| 2026-05-07 20:53 | 52.19865 | -1.52012 | 11507 ft | 285 kts | 155° |
| 2026-05-07 20:53 | 52.18070 | -1.50607 | 12194 ft | 287 kts | 155° |
| 2026-05-07 20:53 | 52.16259 | -1.49185 | 12872 ft | 290 kts | 155° |
| 2026-05-07 20:53 | 52.14433 | -1.47745 | 13546 ft | 293 kts | 155° |
| 2026-05-07 20:54 | 52.12588 | -1.46286 | 14151 ft | 297 kts | 155° |
| 2026-05-07 20:54 | 52.10719 | -1.44811 | 14705 ft | 300 kts | 155° |
| 2026-05-07 20:54 | 52.08830 | -1.43320 | 15275 ft | 303 kts | 155° |
| 2026-05-07 20:54 | 52.06924 | -1.41816 | 15861 ft | 306 kts | 155° |
| 2026-05-07 20:55 | 52.04996 | -1.40297 | 16432 ft | 309 kts | 155° |
| 2026-05-07 20:55 | 52.03050 | -1.38767 | 16994 ft | 313 kts | 156° |
| 2026-05-07 20:55 | 52.01083 | -1.37223 | 17541 ft | 316 kts | 156° |
| 2026-05-07 20:55 | 51.99095 | -1.35662 | 18096 ft | 319 kts | 156° |
| 2026-05-07 20:56 | 51.97088 | -1.34086 | 18614 ft | 322 kts | 156° |
| 2026-05-07 20:56 | 51.95065 | -1.32499 | 19112 ft | 325 kts | 156° |
| 2026-05-07 20:56 | 51.93051 | -1.30920 | 19607 ft | 327 kts | 156° |
| 2026-05-07 20:56 | 51.90994 | -1.29307 | 20106 ft | 330 kts | 156° |
| 2026-05-07 20:57 | 51.88920 | -1.27682 | 20608 ft | 332 kts | 156° |
| 2026-05-07 20:57 | 51.86831 | -1.26048 | 21090 ft | 335 kts | 156° |
| 2026-05-07 20:57 | 51.84702 | -1.24387 | 21558 ft | 337 kts | 156° |
| 2026-05-07 20:57 | 51.82608 | -1.22755 | 22014 ft | 340 kts | 156° |
| 2026-05-07 20:58 | 51.80471 | -1.21090 | 22470 ft | 342 kts | 156° |
| 2026-05-07 20:58 | 51.78319 | -1.19419 | 22897 ft | 345 kts | 156° |
| 2026-05-07 20:58 | 51.76146 | -1.17731 | 23329 ft | 348 kts | 156° |
| 2026-05-07 20:58 | 51.73952 | -1.16033 | 23748 ft | 351 kts | 156° |
| 2026-05-07 20:59 | 51.71745 | -1.14326 | 24135 ft | 353 kts | 156° |
| 2026-05-07 20:59 | 51.69522 | -1.12607 | 24528 ft | 355 kts | 156° |
| 2026-05-07 20:59 | 51.67293 | -1.10886 | 24918 ft | 357 kts | 156° |
| 2026-05-07 20:59 | 51.65047 | -1.09158 | 25309 ft | 358 kts | 156° |
| 2026-05-07 21:00 | 51.62793 | -1.07422 | 25699 ft | 360 kts | 156° |
| 2026-05-07 21:00 | 51.60611 | -1.05391 | 26027 ft | 367 kts | 147° |
| 2026-05-07 21:00 | 51.58501 | -1.02984 | 26156 ft | 377 kts | 146° |
| 2026-05-07 21:00 | 51.56338 | -1.00506 | 26274 ft | 387 kts | 146° |
| 2026-05-07 21:01 | 51.54122 | -0.97967 | 26413 ft | 396 kts | 146° |
| 2026-05-07 21:01 | 51.51849 | -0.95368 | 26534 ft | 405 kts | 146° |
| 2026-05-07 21:01 | 51.49524 | -0.92721 | 26669 ft | 414 kts | 146° |
| 2026-05-07 21:01 | 51.47156 | -0.90024 | 26806 ft | 421 kts | 147° |
| 2026-05-07 21:02 | 51.44638 | -0.87574 | 26945 ft | 426 kts | 155° |
| 2026-05-07 21:02 | 51.41908 | -0.85708 | 27184 ft | 428 kts | 160° |
| 2026-05-07 21:02 | 51.39127 | -0.83945 | 27488 ft | 431 kts | 160° |
| 2026-05-07 21:02 | 51.36337 | -0.82169 | 27806 ft | 433 kts | 160° |
| 2026-05-07 21:03 | 51.33532 | -0.80379 | 28126 ft | 435 kts | 160° |
| 2026-05-07 21:03 | 51.30714 | -0.78571 | 28393 ft | 438 kts | 160° |
| 2026-05-07 21:03 | 51.27889 | -0.76756 | 28788 ft | 438 kts | 160° |
| 2026-05-07 21:03 | 51.25065 | -0.74944 | 29230 ft | 437 kts | 160° |
| 2026-05-07 21:04 | 51.22250 | -0.73146 | 29678 ft | 436 kts | 160° |
| 2026-05-07 21:04 | 51.19432 | -0.71360 | 30131 ft | 435 kts | 160° |
| 2026-05-07 21:04 | 51.16625 | -0.69588 | 30510 ft | 434 kts | 160° |
| 2026-05-07 21:04 | 51.13817 | -0.67821 | 30893 ft | 433 kts | 161° |
| 2026-05-07 21:05 | 51.11016 | -0.66057 | 31288 ft | 433 kts | 160° |
| 2026-05-07 21:05 | 51.08225 | -0.64295 | 31682 ft | 432 kts | 160° |
| 2026-05-07 21:05 | 51.05549 | -0.62441 | 32061 ft | 432 kts | 154° |
| 2026-05-07 21:05 | 51.02961 | -0.59930 | 32446 ft | 434 kts | 148° |
| 2026-05-07 21:06 | 51.00461 | -0.57252 | 32851 ft | 433 kts | 148° |
| 2026-05-07 21:06 | 50.97964 | -0.54576 | 33219 ft | 432 kts | 148° |
| 2026-05-07 21:06 | 50.95476 | -0.51911 | 33617 ft | 432 kts | 148° |
| 2026-05-07 21:06 | 50.92988 | -0.49256 | 33997 ft | 431 kts | 148° |
| 2026-05-07 21:07 | 50.90502 | -0.46611 | 34307 ft | 430 kts | 148° |
| 2026-05-07 21:07 | 50.88021 | -0.43974 | 34588 ft | 430 kts | 148° |
| 2026-05-07 21:07 | 50.85534 | -0.41339 | 34827 ft | 430 kts | 149° |
| 2026-05-07 21:07 | 50.83043 | -0.38707 | 35022 ft | 431 kts | 149° |
| 2026-05-07 21:08 | 50.80537 | -0.36064 | 35078 ft | 436 kts | 148° |
| 2026-05-07 21:08 | 50.75426 | -0.30672 | 35082 ft | 445 kts | 148° |
| 2026-05-07 21:09 | 50.70262 | -0.25244 | 35080 ft | 447 kts | 148° |
| 2026-05-07 21:09 | 50.65091 | -0.19809 | 35082 ft | 447 kts | 148° |
| 2026-05-07 21:10 | 50.59916 | -0.14380 | 35086 ft | 447 kts | 149° |
| 2026-05-07 21:10 | 50.54762 | -0.08999 | 35092 ft | 448 kts | 149° |
| 2026-05-07 21:11 | 50.49570 | -0.03584 | 35091 ft | 448 kts | 149° |
| 2026-05-07 21:11 | 50.41771 | 0.04505 | 35087 ft | 448 kts | 149° |
| 2026-05-07 21:12 | 50.36562 | 0.09886 | 35094 ft | 449 kts | 149° |
| 2026-05-07 21:12 | 50.31350 | 0.15262 | 35098 ft | 449 kts | 149° |
| 2026-05-07 21:13 | 50.26133 | 0.20632 | 35098 ft | 449 kts | 149° |
| 2026-05-07 21:13 | 50.20914 | 0.25981 | 35099 ft | 449 kts | 149° |
| 2026-05-07 21:14 | 50.15700 | 0.31335 | 35091 ft | 448 kts | 149° |
| 2026-05-07 21:14 | 50.10495 | 0.36694 | 35095 ft | 448 kts | 149° |
| 2026-05-07 21:15 | 50.06173 | 0.41132 | 35095 ft | 448 kts | 149° |
| 2026-05-07 21:15 | 50.00965 | 0.46454 | 35093 ft | 448 kts | 149° |
| 2026-05-07 21:16 | 49.95754 | 0.51756 | 35075 ft | 448 kts | 149° |
| 2026-05-07 21:16 | 49.90539 | 0.57056 | 35084 ft | 448 kts | 149° |
| 2026-05-07 21:17 | 49.85357 | 0.62408 | 35079 ft | 449 kts | 144° |
| 2026-05-07 21:17 | 49.80499 | 0.68513 | 35084 ft | 449 kts | 143° |
| 2026-05-07 21:18 | 49.75652 | 0.74623 | 35074 ft | 449 kts | 143° |
| 2026-05-07 21:18 | 49.70794 | 0.80705 | 35072 ft | 449 kts | 143° |
| 2026-05-07 21:19 | 49.65940 | 0.86777 | 35065 ft | 449 kts | 143° |
| 2026-05-07 21:19 | 49.61086 | 0.92843 | 35074 ft | 449 kts | 143° |
| 2026-05-07 21:20 | 49.56224 | 0.98893 | 35063 ft | 449 kts | 143° |
| 2026-05-07 21:20 | 49.51358 | 1.04928 | 35057 ft | 449 kts | 143° |
| 2026-05-07 21:21 | 49.46485 | 1.10962 | 35057 ft | 449 kts | 143° |
| 2026-05-07 21:21 | 49.41611 | 1.16970 | 35066 ft | 449 kts | 143° |
| 2026-05-07 21:22 | 49.36770 | 1.22926 | 35068 ft | 449 kts | 143° |
| 2026-05-07 21:22 | 49.31894 | 1.28927 | 35069 ft | 449 kts | 143° |
| 2026-05-07 21:23 | 49.27013 | 1.34912 | 35060 ft | 449 kts | 143° |
| 2026-05-07 21:23 | 49.22130 | 1.40877 | 35060 ft | 449 kts | 144° |
| 2026-05-07 21:24 | 49.17238 | 1.46839 | 35064 ft | 450 kts | 144° |
| 2026-05-07 21:24 | 49.12345 | 1.52797 | 35062 ft | 450 kts | 144° |
| 2026-05-07 21:25 | 49.07446 | 1.58741 | 35064 ft | 450 kts | 144° |
| 2026-05-07 21:25 | 49.02543 | 1.64671 | 35052 ft | 450 kts | 144° |
| 2026-05-07 21:26 | 48.97633 | 1.70589 | 35055 ft | 450 kts | 144° |
| 2026-05-07 21:26 | 48.92718 | 1.76505 | 35052 ft | 450 kts | 144° |
| 2026-05-07 21:27 | 48.87800 | 1.82410 | 35050 ft | 451 kts | 144° |
| 2026-05-07 21:27 | 48.82872 | 1.88307 | 35060 ft | 451 kts | 144° |
| 2026-05-07 21:28 | 48.77939 | 1.94199 | 35062 ft | 451 kts | 144° |
| 2026-05-07 21:28 | 48.72998 | 2.00067 | 35065 ft | 451 kts | 144° |
| 2026-05-07 21:29 | 48.68058 | 2.05937 | 35066 ft | 451 kts | 144° |
| 2026-05-07 21:29 | 48.63120 | 2.11805 | 35058 ft | 451 kts | 144° |
| 2026-05-07 21:30 | 48.58176 | 2.17652 | 35056 ft | 451 kts | 144° |
| 2026-05-07 21:30 | 48.53594 | 2.24163 | 35054 ft | 454 kts | 137° |
| 2026-05-07 21:31 | 48.49144 | 2.30922 | 35049 ft | 454 kts | 137° |
| 2026-05-07 21:31 | 48.44685 | 2.37674 | 35052 ft | 454 kts | 137° |
| 2026-05-07 21:32 | 48.40223 | 2.44406 | 35043 ft | 454 kts | 137° |
| 2026-05-07 21:32 | 48.35756 | 2.51137 | 35046 ft | 455 kts | 137° |
| 2026-05-07 21:33 | 48.31285 | 2.57860 | 35049 ft | 455 kts | 137° |
| 2026-05-07 21:33 | 48.26367 | 2.63699 | 35045 ft | 449 kts | 154° |
| 2026-05-07 21:34 | 48.20904 | 2.68049 | 35041 ft | 451 kts | 146° |
| 2026-05-07 21:34 | 48.16106 | 2.74256 | 35031 ft | 454 kts | 141° |
| 2026-05-07 21:35 | 48.11368 | 2.80417 | 35035 ft | 454 kts | 142° |
| 2026-05-07 21:35 | 48.06553 | 2.86533 | 35039 ft | 454 kts | 142° |
| 2026-05-07 21:36 | 48.01724 | 2.92644 | 35042 ft | 455 kts | 142° |
| 2026-05-07 21:36 | 47.96907 | 2.98763 | 35035 ft | 455 kts | 142° |
| 2026-05-07 21:37 | 47.92084 | 3.04886 | 35040 ft | 456 kts | 142° |
| 2026-05-07 21:37 | 47.87244 | 3.11002 | 35045 ft | 456 kts | 142° |
| 2026-05-07 21:38 | 47.82400 | 3.17100 | 35051 ft | 456 kts | 142° |
| 2026-05-07 21:38 | 47.77556 | 3.23201 | 35054 ft | 457 kts | 142° |
| 2026-05-07 21:39 | 47.72703 | 3.29290 | 35041 ft | 457 kts | 142° |
| 2026-05-07 21:39 | 47.67841 | 3.35364 | 35046 ft | 457 kts | 143° |
| 2026-05-07 21:40 | 47.62981 | 3.41441 | 35044 ft | 457 kts | 142° |
| 2026-05-07 21:40 | 47.58148 | 3.47478 | 35045 ft | 458 kts | 142° |
| 2026-05-07 21:41 | 47.53268 | 3.53533 | 35031 ft | 458 kts | 143° |
| 2026-05-07 21:41 | 47.48385 | 3.59572 | 35035 ft | 458 kts | 143° |
| 2026-05-07 21:42 | 47.43496 | 3.65617 | 35037 ft | 458 kts | 143° |
| 2026-05-07 21:42 | 47.38606 | 3.71650 | 35039 ft | 458 kts | 143° |
| 2026-05-07 21:43 | 47.33712 | 3.77673 | 35044 ft | 458 kts | 143° |
| 2026-05-07 21:43 | 47.28812 | 3.83675 | 35030 ft | 458 kts | 143° |
| 2026-05-07 21:44 | 47.23912 | 3.89675 | 35030 ft | 458 kts | 143° |
| 2026-05-07 21:44 | 47.19012 | 3.95666 | 35046 ft | 458 kts | 143° |
| 2026-05-07 21:45 | 47.14107 | 4.01637 | 35033 ft | 458 kts | 143° |
| 2026-05-07 21:45 | 47.09199 | 4.07597 | 35024 ft | 458 kts | 143° |
| 2026-05-07 21:46 | 47.04291 | 4.13550 | 35023 ft | 458 kts | 143° |
| 2026-05-07 21:46 | 46.99418 | 4.19495 | 35017 ft | 459 kts | 143° |
| 2026-05-07 21:47 | 46.94480 | 4.25509 | 35017 ft | 459 kts | 143° |
| 2026-05-07 21:47 | 46.89596 | 4.31435 | 35029 ft | 459 kts | 143° |
| 2026-05-07 21:48 | 46.84677 | 4.37388 | 35013 ft | 460 kts | 144° |
| 2026-05-07 21:48 | 46.79745 | 4.43342 | 35012 ft | 460 kts | 144° |
| 2026-05-07 21:49 | 46.74813 | 4.49282 | 35022 ft | 460 kts | 144° |
| 2026-05-07 21:49 | 46.69870 | 4.55229 | 35019 ft | 461 kts | 144° |
| 2026-05-07 21:50 | 46.64925 | 4.61160 | 35014 ft | 461 kts | 144° |
| 2026-05-07 21:50 | 46.59968 | 4.67082 | 35022 ft | 461 kts | 144° |
| 2026-05-07 21:51 | 46.55004 | 4.72995 | 35014 ft | 461 kts | 144° |
| 2026-05-07 21:51 | 46.50040 | 4.78900 | 35019 ft | 461 kts | 144° |
| 2026-05-07 21:52 | 46.45074 | 4.84799 | 35003 ft | 461 kts | 144° |
| 2026-05-07 21:52 | 46.40101 | 4.90688 | 35006 ft | 462 kts | 144° |
| 2026-05-07 21:53 | 46.35118 | 4.96572 | 35008 ft | 462 kts | 144° |
| 2026-05-07 21:53 | 46.30132 | 5.02448 | 35019 ft | 462 kts | 144° |
| 2026-05-07 21:54 | 46.25101 | 5.08236 | 35000 ft | 460 kts | 150° |
| 2026-05-07 21:54 | 46.19527 | 5.12398 | 35009 ft | 453 kts | 161° |
| 2026-05-07 21:55 | 46.13768 | 5.16093 | 35011 ft | 453 kts | 161° |
| 2026-05-07 21:55 | 46.08011 | 5.19799 | 35012 ft | 454 kts | 161° |
| 2026-05-07 21:56 | 46.02239 | 5.23498 | 34994 ft | 454 kts | 161° |
| 2026-05-07 21:56 | 45.96467 | 5.27198 | 34996 ft | 454 kts | 161° |
| 2026-05-07 21:57 | 45.90693 | 5.30896 | 35002 ft | 455 kts | 161° |
| 2026-05-07 21:57 | 45.84915 | 5.34591 | 35004 ft | 455 kts | 161° |
| 2026-05-07 21:58 | 45.79135 | 5.38269 | 34988 ft | 454 kts | 161° |
| 2026-05-07 21:58 | 45.73356 | 5.41936 | 35004 ft | 454 kts | 161° |
| 2026-05-07 21:59 | 45.67574 | 5.45603 | 35007 ft | 454 kts | 161° |
| 2026-05-07 21:59 | 45.61797 | 5.49261 | 34991 ft | 454 kts | 161° |
| 2026-05-07 22:00 | 45.56017 | 5.52904 | 34996 ft | 454 kts | 161° |
| 2026-05-07 22:00 | 45.50257 | 5.56434 | 35001 ft | 453 kts | 162° |
| 2026-05-07 22:01 | 45.44443 | 5.59903 | 34998 ft | 453 kts | 162° |
| 2026-05-07 22:01 | 45.38636 | 5.63367 | 34981 ft | 452 kts | 162° |
| 2026-05-07 22:02 | 45.32844 | 5.66834 | 34995 ft | 451 kts | 162° |
| 2026-05-07 22:02 | 45.27066 | 5.70297 | 34996 ft | 450 kts | 162° |
| 2026-05-07 22:03 | 45.21299 | 5.73751 | 34980 ft | 450 kts | 162° |
| 2026-05-07 22:03 | 45.15543 | 5.77197 | 34984 ft | 449 kts | 162° |
| 2026-05-07 22:04 | 45.09793 | 5.80658 | 34980 ft | 451 kts | 159° |
| 2026-05-07 22:04 | 45.05390 | 5.84732 | 34973 ft | 462 kts | 143° |
| 2026-05-07 22:05 | 45.00633 | 5.90861 | 34961 ft | 463 kts | 143° |
| 2026-05-07 22:05 | 44.95876 | 5.96969 | 34965 ft | 462 kts | 143° |
| 2026-05-07 22:06 | 44.91115 | 6.03055 | 34963 ft | 462 kts | 143° |
| 2026-05-07 22:06 | 44.86353 | 6.09136 | 34965 ft | 461 kts | 143° |
| 2026-05-07 22:07 | 44.81586 | 6.15201 | 34946 ft | 462 kts | 143° |
| 2026-05-07 22:07 | 44.76816 | 6.21254 | 34950 ft | 462 kts | 143° |
| 2026-05-07 22:08 | 44.72046 | 6.27302 | 34959 ft | 462 kts | 143° |
| 2026-05-07 22:08 | 44.67271 | 6.33347 | 34961 ft | 462 kts | 143° |
| 2026-05-07 22:09 | 44.62488 | 6.39374 | 34959 ft | 462 kts | 143° |
| 2026-05-07 22:09 | 44.57706 | 6.45384 | 34960 ft | 461 kts | 143° |
| 2026-05-07 22:10 | 44.52925 | 6.51389 | 34950 ft | 462 kts | 143° |
| 2026-05-07 22:10 | 44.48088 | 6.57302 | 34953 ft | 458 kts | 149° |
| 2026-05-07 22:11 | 44.42846 | 6.62291 | 34958 ft | 456 kts | 152° |
| 2026-05-07 22:11 | 44.37583 | 6.67242 | 34952 ft | 455 kts | 152° |
| 2026-05-07 22:12 | 44.32336 | 6.72190 | 34959 ft | 455 kts | 152° |
| 2026-05-07 22:12 | 44.27082 | 6.77125 | 34972 ft | 455 kts | 152° |
| 2026-05-07 22:13 | 44.21868 | 6.82014 | 34972 ft | 455 kts | 152° |
| 2026-05-07 22:13 | 44.16616 | 6.86924 | 34956 ft | 455 kts | 152° |
| 2026-05-07 22:14 | 44.11363 | 6.91822 | 34971 ft | 454 kts | 152° |
| 2026-05-07 22:14 | 44.06110 | 6.96708 | 34960 ft | 454 kts | 153° |
| 2026-05-07 22:15 | 44.00854 | 7.01579 | 34956 ft | 454 kts | 153° |
| 2026-05-07 22:15 | 43.95598 | 7.06458 | 34979 ft | 454 kts | 153° |
| 2026-05-07 22:16 | 43.90347 | 7.11317 | 34985 ft | 453 kts | 153° |
| 2026-05-07 22:16 | 43.85083 | 7.16160 | 35003 ft | 454 kts | 153° |
| 2026-05-07 22:17 | 43.79820 | 7.21001 | 34993 ft | 454 kts | 153° |
| 2026-05-07 22:17 | 43.74559 | 7.25829 | 35004 ft | 454 kts | 153° |
| 2026-05-07 22:18 | 43.71959 | 7.28214 | 34682 ft | 454 kts | 153° |
| 2026-05-07 22:18 | 43.66669 | 7.33061 | 33796 ft | 453 kts | 153° |
| 2026-05-07 22:18 | 43.64043 | 7.35467 | 33302 ft | 454 kts | 153° |
| 2026-05-07 22:19 | 43.61400 | 7.37857 | 32818 ft | 454 kts | 154° |
| 2026-05-07 22:19 | 43.58712 | 7.40122 | 32311 ft | 452 kts | 156° |
| 2026-05-07 22:19 | 43.55992 | 7.42269 | 31853 ft | 448 kts | 158° |
| 2026-05-07 22:19 | 43.53310 | 7.44306 | 31403 ft | 444 kts | 158° |
| 2026-05-07 22:20 | 43.50611 | 7.46329 | 30948 ft | 439 kts | 159° |
| 2026-05-07 22:20 | 43.47908 | 7.48368 | 30505 ft | 434 kts | 158° |
| 2026-05-07 22:20 | 43.45318 | 7.50349 | 30069 ft | 430 kts | 158° |
| 2026-05-07 22:20 | 43.42726 | 7.52360 | 29563 ft | 426 kts | 158° |
| 2026-05-07 22:21 | 43.40163 | 7.54363 | 29056 ft | 422 kts | 157° |
| 2026-05-07 22:21 | 43.37622 | 7.56354 | 28536 ft | 419 kts | 158° |
| 2026-05-07 22:21 | 43.35099 | 7.58327 | 28058 ft | 416 kts | 158° |
| 2026-05-07 22:21 | 43.32588 | 7.60283 | 27576 ft | 413 kts | 158° |
| 2026-05-07 22:22 | 43.30094 | 7.62216 | 27108 ft | 411 kts | 157° |
| 2026-05-07 22:22 | 43.27616 | 7.64136 | 26651 ft | 408 kts | 157° |
| 2026-05-07 22:22 | 43.25149 | 7.66049 | 26193 ft | 406 kts | 156° |
| 2026-05-07 22:22 | 43.22697 | 7.67948 | 25742 ft | 404 kts | 156° |
| 2026-05-07 22:23 | 43.20258 | 7.69837 | 25307 ft | 402 kts | 156° |
| 2026-05-07 22:23 | 43.17830 | 7.71716 | 24873 ft | 400 kts | 156° |
| 2026-05-07 22:23 | 43.15410 | 7.73590 | 24429 ft | 399 kts | 156° |
| 2026-05-07 22:23 | 43.13000 | 7.75462 | 24019 ft | 398 kts | 155° |
| 2026-05-07 22:24 | 43.10599 | 7.77318 | 23667 ft | 395 kts | 155° |
| 2026-05-07 22:24 | 43.08218 | 7.79156 | 23277 ft | 391 kts | 155° |
| 2026-05-07 22:24 | 43.05856 | 7.80974 | 22867 ft | 387 kts | 155° |
| 2026-05-07 22:24 | 43.03548 | 7.82740 | 22466 ft | 384 kts | 155° |
| 2026-05-07 22:25 | 43.01228 | 7.84510 | 22068 ft | 380 kts | 155° |
| 2026-05-07 22:25 | 42.98934 | 7.86257 | 21674 ft | 376 kts | 155° |
| 2026-05-07 22:25 | 42.96662 | 7.87983 | 21286 ft | 372 kts | 155° |
| 2026-05-07 22:25 | 42.94417 | 7.89691 | 20898 ft | 367 kts | 155° |
| 2026-05-07 22:26 | 42.92199 | 7.91382 | 20514 ft | 363 kts | 154° |
| 2026-05-07 22:26 | 42.90004 | 7.93053 | 20149 ft | 359 kts | 154° |
| 2026-05-07 22:26 | 42.87832 | 7.94702 | 19783 ft | 356 kts | 154° |
| 2026-05-07 22:26 | 42.85681 | 7.96332 | 19415 ft | 352 kts | 154° |
| 2026-05-07 22:27 | 42.83552 | 7.97947 | 19049 ft | 349 kts | 154° |
| 2026-05-07 22:27 | 42.81443 | 7.99548 | 18698 ft | 346 kts | 154° |
| 2026-05-07 22:27 | 42.79350 | 8.01135 | 18354 ft | 343 kts | 154° |
| 2026-05-07 22:27 | 42.77278 | 8.02703 | 18000 ft | 338 kts | 154° |
| 2026-05-07 22:28 | 42.75238 | 8.04253 | 17677 ft | 334 kts | 153° |
| 2026-05-07 22:28 | 42.73229 | 8.05788 | 17352 ft | 329 kts | 153° |
| 2026-05-07 22:28 | 42.71247 | 8.07305 | 17023 ft | 325 kts | 154° |
| 2026-05-07 22:28 | 42.69286 | 8.08800 | 16725 ft | 321 kts | 153° |
| 2026-05-07 22:29 | 42.67349 | 8.10274 | 16419 ft | 317 kts | 153° |
| 2026-05-07 22:29 | 42.65432 | 8.11731 | 16110 ft | 314 kts | 153° |
| 2026-05-07 22:29 | 42.63532 | 8.13172 | 15810 ft | 311 kts | 153° |
| 2026-05-07 22:29 | 42.61652 | 8.14596 | 15507 ft | 308 kts | 153° |
| 2026-05-07 22:30 | 42.59787 | 8.16007 | 15211 ft | 305 kts | 153° |
| 2026-05-07 22:30 | 42.57937 | 8.17404 | 14912 ft | 303 kts | 153° |
| 2026-05-07 22:30 | 42.56103 | 8.18787 | 14627 ft | 300 kts | 153° |
| 2026-05-07 22:30 | 42.54283 | 8.20159 | 14343 ft | 298 kts | 152° |
| 2026-05-07 22:31 | 42.52475 | 8.21521 | 14055 ft | 297 kts | 152° |
| 2026-05-07 22:31 | 42.50673 | 8.22878 | 13764 ft | 295 kts | 152° |
| 2026-05-07 22:31 | 42.48880 | 8.24228 | 13444 ft | 294 kts | 152° |
| 2026-05-07 22:31 | 42.47096 | 8.25565 | 13127 ft | 292 kts | 152° |
| 2026-05-07 22:32 | 42.45322 | 8.26891 | 12863 ft | 291 kts | 152° |
| 2026-05-07 22:32 | 42.43557 | 8.28210 | 12604 ft | 289 kts | 152° |
| 2026-05-07 22:32 | 42.41799 | 8.29524 | 12346 ft | 288 kts | 152° |
| 2026-05-07 22:32 | 42.40074 | 8.30815 | 12093 ft | 287 kts | 152° |
| 2026-05-07 22:33 | 42.38332 | 8.32121 | 11840 ft | 286 kts | 152° |
| 2026-05-07 22:33 | 42.36597 | 8.33421 | 11584 ft | 284 kts | 152° |
| 2026-05-07 22:33 | 42.34872 | 8.34713 | 11332 ft | 283 kts | 153° |
| 2026-05-07 22:33 | 42.33155 | 8.35993 | 11086 ft | 281 kts | 153° |
| 2026-05-07 22:34 | 42.31447 | 8.37268 | 10838 ft | 280 kts | 153° |
| 2026-05-07 22:34 | 42.29748 | 8.38537 | 10590 ft | 279 kts | 153° |
| 2026-05-07 22:34 | 42.28055 | 8.39803 | 10341 ft | 278 kts | 153° |
| 2026-05-07 22:34 | 42.26369 | 8.41061 | 10121 ft | 276 kts | 153° |
| 2026-05-07 22:35 | 42.24692 | 8.42315 | 9929 ft | 275 kts | 153° |
| 2026-05-07 22:35 | 42.23019 | 8.43565 | 9727 ft | 275 kts | 153° |
| 2026-05-07 22:35 | 42.21349 | 8.44810 | 9515 ft | 274 kts | 153° |
| 2026-05-07 22:35 | 42.19695 | 8.46070 | 9297 ft | 273 kts | 152° |
| 2026-05-07 22:36 | 42.18054 | 8.47342 | 9095 ft | 272 kts | 152° |
| 2026-05-07 22:36 | 42.16369 | 8.48465 | 8884 ft | 269 kts | 160° |
| 2026-05-07 22:36 | 42.14586 | 8.49195 | 8676 ft | 267 kts | 169° |
| 2026-05-07 22:36 | 42.12752 | 8.49561 | 8461 ft | 266 kts | 174° |
| 2026-05-07 22:37 | 42.10917 | 8.49871 | 8261 ft | 265 kts | 174° |
| 2026-05-07 22:37 | 42.09091 | 8.50183 | 8054 ft | 264 kts | 173° |
| 2026-05-07 22:37 | 42.07266 | 8.50497 | 7854 ft | 265 kts | 174° |
| 2026-05-07 22:37 | 42.05437 | 8.50811 | 7655 ft | 265 kts | 174° |
| 2026-05-07 22:38 | 42.03614 | 8.51126 | 7453 ft | 264 kts | 174° |
| 2026-05-07 22:38 | 42.01799 | 8.51438 | 7252 ft | 262 kts | 174° |
| 2026-05-07 22:38 | 41.99996 | 8.51748 | 7052 ft | 260 kts | 174° |
| 2026-05-07 22:38 | 41.98199 | 8.52055 | 6859 ft | 261 kts | 173° |
| 2026-05-07 22:39 | 41.96398 | 8.52362 | 6672 ft | 261 kts | 173° |
| 2026-05-07 22:39 | 41.94597 | 8.52671 | 6469 ft | 260 kts | 173° |
| 2026-05-07 22:39 | 41.92813 | 8.52976 | 6275 ft | 258 kts | 173° |
| 2026-05-07 22:39 | 41.91034 | 8.53281 | 6084 ft | 257 kts | 173° |
| 2026-05-07 22:40 | 41.89286 | 8.53582 | 5908 ft | 254 kts | 173° |
| 2026-05-07 22:40 | 41.87556 | 8.53879 | 5726 ft | 248 kts | 173° |
| 2026-05-07 22:40 | 41.85846 | 8.54166 | 5549 ft | 248 kts | 173° |
| 2026-05-07 22:40 | 41.84109 | 8.54457 | 5369 ft | 248 kts | 173° |
| 2026-05-07 22:41 | 41.82421 | 8.54742 | 5204 ft | 247 kts | 173° |
| 2026-05-07 22:41 | 41.80697 | 8.55033 | 5024 ft | 246 kts | 173° |
| 2026-05-07 22:41 | 41.79034 | 8.55313 | 4860 ft | 241 kts | 173° |
| 2026-05-07 22:41 | 41.77371 | 8.55592 | 4683 ft | 233 kts | 173° |
| 2026-05-07 22:42 | 41.75789 | 8.55859 | 4531 ft | 226 kts | 173° |
| 2026-05-07 22:42 | 41.74261 | 8.56117 | 4381 ft | 224 kts | 173° |
| 2026-05-07 22:42 | 41.72716 | 8.56382 | 4230 ft | 224 kts | 171° |
| 2026-05-07 22:42 | 41.71251 | 8.57036 | 4082 ft | 223 kts | 148° |
| 2026-05-07 22:43 | 41.70103 | 8.58407 | 3926 ft | 223 kts | 127° |
| 2026-05-07 22:43 | 41.69382 | 8.60232 | 3785 ft | 223 kts | 107° |
| 2026-05-07 22:43 | 41.69172 | 8.62274 | 3628 ft | 223 kts | 86° |
| 2026-05-07 22:43 | 41.69496 | 8.64286 | 3474 ft | 222 kts | 66° |
| 2026-05-07 22:44 | 41.70315 | 8.66027 | 3328 ft | 222 kts | 46° |
| 2026-05-07 22:44 | 41.71515 | 8.67274 | 3175 ft | 215 kts | 26° |
| 2026-05-07 22:44 | 41.72836 | 8.68100 | 3067 ft | 205 kts | 24° |
| 2026-05-07 22:44 | 41.74092 | 8.68876 | 3043 ft | 194 kts | 24° |
| 2026-05-07 22:45 | 41.75310 | 8.69631 | 3020 ft | 191 kts | 24° |
| 2026-05-07 22:45 | 41.76512 | 8.70375 | 3008 ft | 190 kts | 24° |
| 2026-05-07 22:45 | 41.77711 | 8.71118 | 2884 ft | 189 kts | 24° |
| 2026-05-07 22:45 | 41.78885 | 8.71847 | 2669 ft | 184 kts | 24° |
| 2026-05-07 22:46 | 41.80035 | 8.72560 | 2434 ft | 180 kts | 23° |
| 2026-05-07 22:46 | 41.81143 | 8.73248 | 2200 ft | 171 kts | 22° |
| 2026-05-07 22:46 | 41.82190 | 8.73899 | 1977 ft | 161 kts | 22° |
| 2026-05-07 22:46 | 41.83166 | 8.74505 | 1772 ft | 151 kts | 22° |
| 2026-05-07 22:47 | 41.84120 | 8.75097 | 1595 ft | 146 kts | 21° |
| 2026-05-07 22:47 | 41.85030 | 8.75661 | 1392 ft | 147 kts | 22° |
| 2026-05-07 22:47 | 41.85961 | 8.76235 | 1182 ft | 148 kts | 23° |
| 2026-05-07 22:47 | 41.86900 | 8.76827 | 983 ft | 150 kts | 21° |
| 2026-05-07 22:48 | 41.87850 | 8.77410 | 790 ft | 150 kts | 23° |
| 2026-05-07 22:48 | 41.88800 | 8.78012 | 579 ft | 151 kts | 24° |
| 2026-05-07 22:48 | 41.89746 | 8.78609 | 370 ft | 152 kts | 25° |
| 2026-05-07 22:48 | 41.90711 | 8.79209 | 172 ft | 154 kts | 25° |
| 2026-05-07 22:49 | 41.91681 | 8.79803 | 42 ft | 146 kts | 25° |
| 2026-05-07 22:49 | 41.92407 | 8.80253 | 41 ft | 73 kts | 25° |
| 2026-05-07 22:49 | 41.92676 | 8.80426 | 41 ft | 15 kts | 24° |
| 2026-05-07 22:49 | 41.92738 | 8.80459 | 43 ft | 8 kts | 7° |
| 2026-05-07 22:50 | 41.92775 | 8.80413 | 46 ft | 8 kts | 295° |
| 2026-05-07 22:50 | 41.92800 | 8.80338 | 55 ft | 10 kts | 295° |
| 2026-05-07 22:50 | 41.92827 | 8.80262 | 54 ft | 8 kts | 292° |
| 2026-05-07 22:50 | 41.92804 | 8.80195 | 58 ft | 9 kts | 218° |
| 2026-05-07 22:51 | 41.92745 | 8.80136 | 55 ft | 12 kts | 214° |
| 2026-05-07 22:51 | 41.92671 | 8.80085 | 52 ft | 12 kts | 204° |
| 2026-05-07 22:51 | 41.92595 | 8.80039 | 53 ft | 10 kts | 205° |
| 2026-05-07 22:51 | 41.92522 | 8.79993 | 58 ft | 13 kts | 205° |
| 2026-05-07 22:52 | 41.92444 | 8.79944 | 58 ft | 13 kts | 205° |
| 2026-05-07 22:52 | 41.92362 | 8.79893 | 58 ft | 12 kts | 205° |
| 2026-05-07 22:52 | 41.92296 | 8.79852 | 56 ft | 9 kts | 204° |
| 2026-05-07 22:52 | 41.92254 | 8.79826 | 56 ft | 7 kts | 204° |
| 2026-05-07 22:53 | 41.92204 | 8.79796 | 59 ft | 9 kts | 204° |
| 2026-05-07 22:53 | 41.92151 | 8.79762 | 57 ft | 7 kts | 205° |
| 2026-05-07 22:53 | 41.92110 | 8.79737 | 56 ft | 7 kts | 204° |
| 2026-05-07 22:53 | 41.92068 | 8.79715 | 55 ft | 5 kts | 200° |
| 2026-05-07 22:54 | 41.92044 | 8.79695 | 59 ft | 0 kts | 230° |
| 2026-05-07 22:54 | 41.92043 | 8.79693 | 59 ft | 1 kts | 233° |
| 2026-05-07 22:54 | 41.92040 | 8.79681 | 55 ft | 3 kts | 254° |
| 2026-05-07 22:54 | 41.92043 | 8.79660 | 59 ft | 2 kts | 294° |
| 2026-05-07 22:55 | 41.92057 | 8.79648 | 57 ft | 3 kts | 338° |
| 2026-05-07 22:55 | 41.92075 | 8.79643 | 59 ft | 2 kts | 346° |
| 2026-05-07 22:55 | 41.92078 | 8.79642 | 59 ft | 0 kts | 346° |